Time;durP1;ratioP1;P1;durP2;ratioP2;P2;SDS_P1;SDS_P2;PMS_P1;PMS_P2;Temp;Humidity;BMP_temperature;BMP_pressure;BME280_temperature;BME280_humidity;BME280_pressure;Samples;Min_cycle;Max_cycle;Signal;HPM_P1;HPM_P2
2024/03/29 00:00:48;;;;;;;;;;;;;;;20.16;46.50;99316.69;2053236;28;6297;-62
2024/03/29 00:01:48;;;;;;;;;;;;;;;20.16;46.52;99319.56;2051546;28;2156;-62
2024/03/29 00:02:48;;;;;;;;;;;;;;;20.16;46.39;99319.56;2051335;28;2217;-62
2024/03/29 00:03:49;;;;;;;;;;;;;;;20.14;46.48;99313.78;2055411;28;1643;-62
2024/03/29 00:04:49;;;;;;;;;;;;;;;20.15;46.39;99326.75;2054716;28;1668;-62
2024/03/29 00:05:50;;;;;;;;;;;;;;;20.15;46.44;99323.88;2053278;28;1652;-62
2024/03/29 00:06:50;;;;;;;;;;;;;;;20.15;46.42;99326.75;2052546;28;2225;-62
2024/03/29 00:07:50;;;;;;;;;;;;;;;20.14;46.41;99328.16;2052796;28;2171;-62
2024/03/29 00:08:51;;;;;;;;;;;;;;;20.14;46.42;99328.16;2057516;28;2205;-62
2024/03/29 00:09:51;;;;;;;;;;;;;;;20.15;46.65;99326.75;2060137;28;2215;-62
2024/03/29 00:10:51;;;;;;;;;;;;;;;20.13;46.40;99330.28;2050514;28;2134;-62
2024/03/29 00:11:52;;;;;;;;;;;;;;;20.14;46.57;99331.03;2053977;28;1624;-62
2024/03/29 00:12:52;;;;;;;;;;;;;;;20.13;46.33;99332.44;2052370;28;2127;-62
2024/03/29 00:13:53;;;;;;;;;;;;;;;20.13;46.48;99329.56;2053648;28;1554;-62
2024/03/29 00:14:54;;;;;;;;;;;;;;;20.13;46.47;99330.28;2059998;28;1636;-62
2024/03/29 00:15:54;;;;;;;;;;;;;;;20.13;46.48;99335.31;2059436;28;1757;-62
2024/03/29 00:16:54;;;;;;;;;;;;;;;20.12;46.48;99334.59;2051699;28;2143;-62
2024/03/29 00:17:55;;;;;;;;;;;;;;;20.12;46.53;99333.88;2049262;28;2151;-62
2024/03/29 00:18:55;;;;;;;;;;;;;;;20.12;46.77;99342.47;2053579;28;1677;-62
2024/03/29 00:19:56;;;;;;;;;;;;;;;20.12;46.49;99348.97;2060975;28;1977;-62
2024/03/29 00:20:56;;;;;;;;;;;;;;;20.11;46.66;99338.13;2059459;28;1799;-62
2024/03/29 00:21:56;;;;;;;;;;;;;;;20.11;46.55;99346.75;2053377;28;1644;-62
2024/03/29 00:22:57;;;;;;;;;;;;;;;20.11;46.46;99343.88;2061856;28;1611;-62
2024/03/29 00:23:57;;;;;;;;;;;;;;;20.11;46.54;99361.13;2061143;28;1626;-62
2024/03/29 00:24:58;;;;;;;;;;;;;;;20.11;46.47;99361.13;2054499;28;2120;-62
2024/03/29 00:25:58;;;;;;;;;;;;;;;20.11;46.54;99349.63;2060429;28;1635;-62
2024/03/29 00:26:59;;;;;;;;;;;;;;;20.11;46.68;99349.63;2059267;28;2094;-62
2024/03/29 00:28:01;;;;;;;;;;;;;;;20.11;46.53;99361.13;2050782;28;2191;-62
2024/03/29 00:29:01;;;;;;;;;;;;;;;20.11;46.56;99361.13;2054086;28;1891;-62
2024/03/29 00:30:02;;;;;;;;;;;;;;;20.08;46.46;99375.44;2052669;28;6215;-62
2024/03/29 00:31:02;;;;;;;;;;;;;;;20.09;46.67;99365.41;2052591;28;2770;-62
2024/03/29 00:32:03;;;;;;;;;;;;;;;20.08;46.61;99358.19;2053005;28;1768;-62
2024/03/29 00:33:04;;;;;;;;;;;;;;;20.08;46.58;99372.56;2043905;28;2089;-62
2024/03/29 00:34:05;;;;;;;;;;;;;;;20.08;46.47;99366.09;2045406;28;1774;-62
2024/03/29 00:35:05;;;;;;;;;;;;;;;20.08;46.55;99372.56;2061764;28;1851;-62
2024/03/29 00:36:06;;;;;;;;;;;;;;;20.07;46.49;99367.53;2052577;28;1600;-62
2024/03/29 00:37:06;;;;;;;;;;;;;;;20.06;46.46;99366.03;2043604;28;2097;-62
2024/03/29 00:38:06;;;;;;;;;;;;;;;20.07;46.52;99368.25;2043296;28;3133;-62
2024/03/29 00:39:11;;;;;;;;;;;;;;;20.07;46.56;99368.25;2043441;28;2161;-62
2024/03/29 00:40:11;;;;;;;;;;;;;;;20.06;46.60;99363.91;2043894;28;2277;-62
2024/03/29 00:41:11;;;;;;;;;;;;;;;20.06;46.68;99361.03;2045008;28;1710;-62
2024/03/29 00:42:15;;;;;;;;;;;;;;;20.07;46.63;99365.38;2053202;28;1651;-62
2024/03/29 00:43:15;;;;;;;;;;;;;;;20.06;46.54;99366.78;2046091;28;1684;-62
2024/03/29 00:44:15;;;;;;;;;;;;;;;20.06;46.75;99363.91;2054011;28;1730;-62
2024/03/29 00:45:16;;;;;;;;;;;;;;;20.06;46.60;99368.91;2052305;28;1901;-62
2024/03/29 00:46:17;;;;;;;;;;;;;;;20.06;46.56;99366.78;2051953;28;2077;-62
2024/03/29 00:47:17;;;;;;;;;;;;;;;20.06;46.60;99371.78;2060940;28;1896;-62
2024/03/29 00:48:19;;;;;;;;;;;;;;;20.05;46.41;99376.81;2050191;28;2117;-62
2024/03/29 00:49:20;;;;;;;;;;;;;;;20.06;46.54;99371.78;2052539;28;1958;-62
2024/03/29 00:50:20;;;;;;;;;;;;;;;20.05;46.68;99365.31;2051649;28;2080;-62
2024/03/29 00:51:20;;;;;;;;;;;;;;;20.05;46.52;99362.44;2049803;28;2141;-62
2024/03/29 00:52:21;;;;;;;;;;;;;;;20.05;46.43;99370.34;2051457;28;2170;-62
2024/03/29 00:53:21;;;;;;;;;;;;;;;20.05;46.52;99364.59;2043804;28;2121;-62
2024/03/29 00:54:23;;;;;;;;;;;;;;;20.04;46.67;99363.88;2041601;28;2074;-62
2024/03/29 00:55:24;;;;;;;;;;;;;;;20.04;46.53;99374.63;2043432;28;2275;-62
2024/03/29 00:56:24;;;;;;;;;;;;;;;20.04;46.71;99368.88;2045526;28;2109;-62
2024/03/29 00:57:24;;;;;;;;;;;;;;;20.02;46.66;99360.94;2053623;28;1763;-62
2024/03/29 00:58:25;;;;;;;;;;;;;;;20.04;46.56;99368.88;2060448;28;1645;-62
2024/03/29 00:59:25;;;;;;;;;;;;;;;20.04;46.64;99372.50;2051232;28;2100;-62
2024/03/29 01:00:26;;;;;;;;;;;;;;;20.03;46.60;99368.13;2041684;28;6368;-62
2024/03/29 01:01:26;;;;;;;;;;;;;;;20.01;46.53;99362.34;2044930;28;2296;-62
2024/03/29 01:02:27;;;;;;;;;;;;;;;20.02;46.66;99365.94;2052008;28;1909;-62
2024/03/29 01:03:28;;;;;;;;;;;;;;;20.02;46.76;99363.81;2057212;28;2098;-62
2024/03/29 01:04:29;;;;;;;;;;;;;;;20.01;46.59;99365.22;2053293;28;1654;-62
2024/03/29 01:05:29;;;;;;;;;;;;;;;20.02;46.65;99366.69;2044849;28;2006;-62
2024/03/29 01:06:29;;;;;;;;;;;;;;;20.00;46.74;99358.03;2053104;28;1716;-62
2024/03/29 01:07:30;;;;;;;;;;;;;;;20.01;46.71;99359.47;2053617;28;1664;-62
2024/03/29 01:08:30;;;;;;;;;;;;;;;20.01;46.53;99358.75;2045077;28;1887;-62
2024/03/29 01:09:31;;;;;;;;;;;;;;;20.00;46.64;99358.03;2044786;28;2081;-62
2024/03/29 01:10:31;;;;;;;;;;;;;;;20.01;46.70;99361.63;2051575;28;2017;-62
2024/03/29 01:11:32;;;;;;;;;;;;;;;19.99;46.72;99362.28;2050148;28;2113;-62
2024/03/29 01:12:32;;;;;;;;;;;;;;;20.00;46.54;99369.50;2040962;28;2155;-62
2024/03/29 01:13:33;;;;;;;;;;;;;;;19.99;46.52;99368.03;2041892;28;2164;-62
2024/03/29 01:14:33;;;;;;;;;;;;;;;19.99;46.71;99368.03;2051535;28;2116;-62
2024/03/29 01:15:33;;;;;;;;;;;;;;;20.00;46.50;99363.78;2059189;28;2146;-62
2024/03/29 01:16:34;;;;;;;;;;;;;;;19.99;46.70;99362.28;2052151;28;2072;-62
2024/03/29 01:17:34;;;;;;;;;;;;;;;19.99;46.63;99368.03;2040569;28;2148;-62
2024/03/29 01:18:35;;;;;;;;;;;;;;;19.98;46.59;99366.59;2051559;28;2239;-62
2024/03/29 01:19:35;;;;;;;;;;;;;;;19.98;46.73;99366.59;2049176;28;2104;-62
2024/03/29 01:20:36;;;;;;;;;;;;;;;19.98;46.57;99366.59;2043540;28;2113;-62
2024/03/29 01:21:36;;;;;;;;;;;;;;;19.98;46.72;99372.34;2054503;28;2093;-62
2024/03/29 01:22:37;;;;;;;;;;;;;;;19.98;46.70;99372.34;2045683;28;1853;-62
2024/03/29 01:23:37;;;;;;;;;;;;;;;19.98;46.64;99372.34;2054816;28;2101;-62
2024/03/29 01:24:38;;;;;;;;;;;;;;;19.98;46.58;99365.88;2051851;28;2139;-62
2024/03/29 01:25:38;;;;;;;;;;;;;;;19.98;46.71;99360.84;2047015;28;2046;-62
2024/03/29 01:26:38;;;;;;;;;;;;;;;19.96;46.72;99369.41;2052627;28;2116;-62
2024/03/29 01:27:39;;;;;;;;;;;;;;;19.96;46.77;99378.03;2047683;28;1808;-62
2024/03/29 01:28:39;;;;;;;;;;;;;;;19.96;46.66;99378.03;2053649;28;1662;-62
2024/03/29 01:29:39;;;;;;;;;;;;;;;19.97;46.75;99373.72;2053211;28;2002;-62
2024/03/29 01:30:40;;;;;;;;;;;;;;;19.97;46.55;99376.59;2048931;28;6214;-62
2024/03/29 01:31:40;;;;;;;;;;;;;;;19.97;46.63;99373.00;2053753;28;2114;-62
2024/03/29 01:32:41;;;;;;;;;;;;;;;19.97;46.52;99368.00;2055326;28;1676;-62
2024/03/29 01:33:41;;;;;;;;;;;;;;;19.95;46.68;99373.72;2052654;28;2025;-62
2024/03/29 01:34:42;;;;;;;;;;;;;;;19.95;46.56;99367.97;2055816;28;1549;-62
2024/03/29 01:35:42;;;;;;;;;;;;;;;19.95;46.59;99372.97;2062452;28;1829;-62
2024/03/29 01:36:43;;;;;;;;;;;;;;;19.94;46.61;99377.97;2063035;28;1722;-62
2024/03/29 01:37:43;;;;;;;;;;;;;;;19.95;46.65;99379.44;2060032;28;1773;-62
2024/03/29 01:38:47;;;;;;;;;;;;;;;19.95;46.68;99385.19;2055077;28;1656;-62
2024/03/29 01:39:47;;;;;;;;;;;;;;;19.94;46.63;99377.97;2061997;28;1835;-62
2024/03/29 01:40:47;;;;;;;;;;;;;;;19.94;46.58;99377.97;2061344;28;2133;-62
2024/03/29 01:41:48;;;;;;;;;;;;;;;19.94;46.60;99368.63;2058982;28;2218;-62
2024/03/29 01:42:52;;;;;;;;;;;;;;;19.93;46.75;99370.78;2052280;28;2092;-62
2024/03/29 01:43:53;;;;;;;;;;;;;;;19.93;46.75;99376.53;2060701;28;2448;-62
2024/03/29 01:44:53;;;;;;;;;;;;;;;19.93;46.60;99365.03;2068217;28;2563;-62
2024/03/29 01:45:54;;;;;;;;;;;;;;;19.94;46.63;99374.38;2060715;28;2005;-62
2024/03/29 01:46:55;;;;;;;;;;;;;;;19.94;46.57;99368.63;2060147;28;2090;-62
2024/03/29 01:47:55;;;;;;;;;;;;;;;19.93;46.59;99376.53;2059189;28;2302;-62
2024/03/29 01:48:56;;;;;;;;;;;;;;;19.93;46.53;99376.53;2061377;28;1804;-62
2024/03/29 01:49:57;;;;;;;;;;;;;;;19.93;46.54;99370.78;2062085;28;2034;-62
2024/03/29 01:50:57;;;;;;;;;;;;;;;19.92;46.53;99377.19;2052798;28;2088;-62
2024/03/29 01:51:58;;;;;;;;;;;;;;;19.92;46.62;99382.94;2051127;28;2096;-62
2024/03/29 01:52:59;;;;;;;;;;;;;;;19.92;46.78;99377.19;2052003;28;2247;-62
2024/03/29 01:54:00;;;;;;;;;;;;;;;19.92;46.75;99375.06;2044389;28;2211;-62
2024/03/29 01:55:01;;;;;;;;;;;;;;;19.92;46.63;99375.06;2051079;28;2126;-62
2024/03/29 01:56:02;;;;;;;;;;;;;;;19.93;46.63;99384.41;2059221;28;2117;-62
2024/03/29 01:57:03;;;;;;;;;;;;;;;19.91;46.67;99385.09;2060173;28;2153;-62
2024/03/29 01:58:04;;;;;;;;;;;;;;;19.91;46.74;99381.50;2061198;28;2090;-62
2024/03/29 01:59:04;;;;;;;;;;;;;;;19.91;46.75;99385.09;2052229;28;2146;-62
2024/03/29 02:00:05;;;;;;;;;;;;;;;19.90;46.68;99377.88;2053232;28;6165;-62
2024/03/29 02:01:07;;;;;;;;;;;;;;;19.90;46.66;99377.88;2051461;28;2396;-62
2024/03/29 02:02:07;;;;;;;;;;;;;;;19.91;46.67;99390.13;2051450;28;2211;-62
2024/03/29 02:03:13;;;;;;;;;;;;;;;19.91;46.63;99381.50;2051254;28;2531;-62
2024/03/29 02:04:14;;;;;;;;;;;;;;;19.90;46.71;99388.63;2053608;28;2467;-62
2024/03/29 02:05:14;;;;;;;;;;;;;;;19.89;46.72;99382.16;2054777;28;1629;-62
2024/03/29 02:06:15;;;;;;;;;;;;;;;19.91;46.57;99375.75;2056465;28;1716;-62
2024/03/29 02:07:16;;;;;;;;;;;;;;;19.92;46.78;99380.06;2052876;28;1696;-62
2024/03/29 02:08:17;;;;;;;;;;;;;;;19.89;46.70;99376.41;2054487;28;1637;-62
2024/03/29 02:09:17;;;;;;;;;;;;;;;19.90;46.67;99386.50;2053097;28;2095;-62
2024/03/29 02:10:18;;;;;;;;;;;;;;;19.90;46.77;99386.50;2052921;28;2155;-62
2024/03/29 02:11:19;;;;;;;;;;;;;;;19.89;46.71;99382.16;2051395;28;2215;-62
2024/03/29 02:12:20;;;;;;;;;;;;;;;19.89;46.61;99382.16;2058123;28;2142;-62
2024/03/29 02:13:20;;;;;;;;;;;;;;;19.88;46.78;99384.31;2061574;28;1683;-62
2024/03/29 02:14:21;;;;;;;;;;;;;;;19.88;46.80;99381.44;2062570;28;2586;-62
2024/03/29 02:15:21;;;;;;;;;;;;;;;19.86;46.68;99377.78;2062059;28;1857;-62
2024/03/29 02:16:21;;;;;;;;;;;;;;;19.89;46.83;99379.28;2061318;28;1705;-62
2024/03/29 02:17:22;;;;;;;;;;;;;;;19.88;46.77;99383.56;2059820;28;2131;-64
2024/03/29 02:18:22;;;;;;;;;;;;;;;19.87;46.65;99379.97;2061488;28;2126;-64
2024/03/29 02:19:23;;;;;;;;;;;;;;;19.88;46.71;99387.19;2062190;28;1726;-62
2024/03/29 02:20:23;;;;;;;;;;;;;;;19.88;46.64;99386.44;2058241;28;2266;-62
2024/03/29 02:21:24;;;;;;;;;;;;;;;19.87;46.82;99390.72;2050435;28;2237;-62
2024/03/29 02:22:25;;;;;;;;;;;;;;;19.85;46.73;99385.66;2054745;28;1612;-62
2024/03/29 02:23:26;;;;;;;;;;;;;;;19.86;46.75;99395.75;2060010;28;2227;-62
2024/03/29 02:24:27;;;;;;;;;;;;;;;19.87;46.80;99390.72;2060123;28;2578;-62
2024/03/29 02:25:28;;;;;;;;;;;;;;;19.86;46.64;99389.28;2068194;28;2497;-62
2024/03/29 02:26:31;;;;;;;;;;;;;;;19.86;46.73;99384.25;2059597;28;1886;-62
2024/03/29 02:27:31;;;;;;;;;;;;;;;19.87;46.76;99391.47;2052387;28;1792;-62
2024/03/29 02:28:32;;;;;;;;;;;;;;;19.87;46.58;99391.47;2052067;28;1712;-62
2024/03/29 02:29:35;;;;;;;;;;;;;;;19.86;46.54;99390.00;2059786;28;1809;-62
2024/03/29 02:30:35;;;;;;;;;;;;;;;19.86;46.64;99386.41;2054220;28;6122;-62
2024/03/29 02:31:36;;;;;;;;;;;;;;;19.86;46.72;99395.03;2056853;28;2636;-62
2024/03/29 02:32:36;;;;;;;;;;;;;;;19.85;46.60;99394.28;2060968;28;1637;-62
2024/03/29 02:33:36;;;;;;;;;;;;;;;19.85;46.78;99408.63;2062527;28;2162;-62
2024/03/29 02:34:37;;;;;;;;;;;;;;;19.85;46.72;99399.28;2062139;28;1903;-62
2024/03/29 02:35:37;;;;;;;;;;;;;;;19.85;46.80;99399.28;2068708;28;1724;-62
2024/03/29 02:36:38;;;;;;;;;;;;;;;19.85;46.73;99402.16;2067867;28;1592;-62
2024/03/29 02:37:38;;;;;;;;;;;;;;;19.85;46.67;99399.28;2060583;28;1657;-62
2024/03/29 02:38:38;;;;;;;;;;;;;;;19.85;46.77;99410.78;2061532;28;1700;-62
2024/03/29 02:39:39;;;;;;;;;;;;;;;19.84;46.82;99398.56;2062738;28;1701;-62
2024/03/29 02:40:39;;;;;;;;;;;;;;;19.84;46.66;99400.72;2067202;28;2049;-62
2024/03/29 02:41:40;;;;;;;;;;;;;;;19.83;46.67;99394.22;2066100;28;2122;-62
2024/03/29 02:42:40;;;;;;;;;;;;;;;19.83;46.62;99396.38;2060336;28;2263;-62
2024/03/29 02:43:41;;;;;;;;;;;;;;;19.84;46.82;99397.84;2060286;28;2146;-62
2024/03/29 02:44:41;;;;;;;;;;;;;;;19.83;46.62;99397.09;2069985;28;1572;-63
2024/03/29 02:45:42;;;;;;;;;;;;;;;19.83;46.71;99404.97;2068656;28;2148;-63
2024/03/29 02:46:43;;;;;;;;;;;;;;;19.83;46.66;99407.84;2059761;28;2154;-62
2024/03/29 02:47:43;;;;;;;;;;;;;;;19.84;46.61;99400.72;2059114;28;2138;-62
2024/03/29 02:48:44;;;;;;;;;;;;;;;19.84;46.66;99394.97;2058536;28;2182;-62
2024/03/29 02:49:44;;;;;;;;;;;;;;;19.85;46.69;99393.56;2070607;28;1707;-62
2024/03/29 02:50:44;;;;;;;;;;;;;;;19.84;46.60;99398.56;2059763;28;2248;-62
2024/03/29 02:51:45;;;;;;;;;;;;;;;19.85;46.67;99402.16;2057307;28;2161;-62
2024/03/29 02:52:45;;;;;;;;;;;;;;;19.85;46.74;99396.41;2060111;28;2322;-62
2024/03/29 02:53:46;;;;;;;;;;;;;;;19.85;46.44;99393.56;2059547;28;2193;-62
2024/03/29 02:54:46;;;;;;;;;;;;;;;19.84;46.78;99381.34;2061461;28;1594;-62
2024/03/29 02:55:46;;;;;;;;;;;;;;;19.85;46.51;99393.56;2062387;28;1593;-62
2024/03/29 02:56:47;;;;;;;;;;;;;;;19.86;46.56;99400.78;2062520;28;1687;-62
2024/03/29 02:57:47;;;;;;;;;;;;;;;19.85;46.73;99402.16;2060131;28;1887;-62
2024/03/29 02:58:48;;;;;;;;;;;;;;;19.85;46.46;99399.28;2061062;28;1625;-62
2024/03/29 02:59:48;;;;;;;;;;;;;;;19.85;46.48;99400.03;2062499;28;1720;-62
2024/03/29 03:00:48;;;;;;;;;;;;;;;19.85;46.62;99407.91;2057246;28;6067;-62
2024/03/29 03:01:49;;;;;;;;;;;;;;;19.85;46.47;99405.03;2057446;28;2140;-62
2024/03/29 03:02:49;;;;;;;;;;;;;;;19.85;46.62;99405.03;2068374;28;2289;-62
2024/03/29 03:03:49;;;;;;;;;;;;;;;19.84;46.75;99423.69;2066345;28;2271;-62
2024/03/29 03:04:50;;;;;;;;;;;;;;;19.84;46.51;99417.94;2059301;28;2122;-62
2024/03/29 03:05:52;;;;;;;;;;;;;;;19.84;46.68;99417.94;2058965;28;2249;-62
2024/03/29 03:06:52;;;;;;;;;;;;;;;19.83;46.65;99419.34;2058883;28;2418;-62
2024/03/29 03:11:50;;;;;;;;;;;;;;;19.82;46.59;99418.63;2068611;28;2074;-62
2024/03/29 03:12:50;;;;;;;;;;;;;;;19.81;46.63;99427.91;2059654;28;2217;-62
2024/03/29 03:13:51;;;;;;;;;;;;;;;19.81;46.69;99419.28;2066451;28;2185;-62
2024/03/29 03:14:51;;;;;;;;;;;;;;;19.82;46.52;99429.38;2066310;28;2079;-62
2024/03/29 03:15:51;;;;;;;;;;;;;;;19.82;46.54;99423.66;2059427;28;2185;-62
2024/03/29 03:16:52;;;;;;;;;;;;;;;19.82;46.63;99423.66;2061428;28;1910;-62
2024/03/29 03:17:52;;;;;;;;;;;;;;;19.80;46.62;99432.94;2060320;28;2131;-62
2024/03/29 03:18:53;;;;;;;;;;;;;;;19.80;46.76;99429.34;2062261;28;1660;-63
2024/03/29 03:19:53;;;;;;;;;;;;;;;19.81;46.54;99422.16;2068982;28;1653;-62
2024/03/29 03:20:54;;;;;;;;;;;;;;;19.81;46.65;99431.53;2067568;28;2156;-62
2024/03/29 03:21:54;;;;;;;;;;;;;;;19.81;46.45;99433.66;2066568;28;2161;-62
2024/03/29 03:22:55;;;;;;;;;;;;;;;19.81;46.53;99433.66;2068302;28;2145;-62
2024/03/29 03:23:56;;;;;;;;;;;;;;;19.81;46.58;99427.91;2061771;28;2104;-62
2024/03/29 03:24:56;;;;;;;;;;;;;;;19.81;46.52;99439.41;2061762;28;1613;-62
2024/03/29 03:26:01;;;;;;;;;;;;;;;19.81;46.62;99439.41;2068865;28;1705;-62
2024/03/29 03:27:01;;;;;;;;;;;;;;;19.79;46.63;99434.34;2067172;28;1808;-62
2024/03/29 03:28:01;;;;;;;;;;;;;;;19.79;46.55;99437.22;2060132;28;2098;-62
2024/03/29 03:29:02;;;;;;;;;;;;;;;19.79;46.70;99445.09;2068213;28;2099;-62
2024/03/29 03:30:02;;;;;;;;;;;;;;;19.79;46.59;99430.72;2061436;28;6223;-62
2024/03/29 03:31:03;;;;;;;;;;;;;;;19.79;46.49;99437.22;2058646;28;2190;-62
2024/03/29 03:32:03;;;;;;;;;;;;;;;19.79;46.58;99430.72;2058503;28;2181;-62
2024/03/29 03:33:04;;;;;;;;;;;;;;;19.78;46.60;99435.03;2059346;28;2233;-62
2024/03/29 03:34:05;;;;;;;;;;;;;;;19.77;46.63;99433.53;2067740;28;2359;-62
2024/03/29 03:35:05;;;;;;;;;;;;;;;19.77;46.68;99439.28;2069256;28;1593;-62
2024/03/29 03:36:06;;;;;;;;;;;;;;;19.76;46.69;99440.72;2068982;28;1636;-62
2024/03/29 03:37:06;;;;;;;;;;;;;;;19.75;46.62;99442.13;2068794;28;1626;-62
2024/03/29 03:38:07;;;;;;;;;;;;;;;19.76;46.65;99447.19;2058818;28;1927;-62
2024/03/29 03:39:07;;;;;;;;;;;;;;;19.78;46.74;99452.25;2062289;28;1673;-62
2024/03/29 03:40:08;;;;;;;;;;;;;;;19.77;46.59;99451.53;2069881;28;1914;-62
2024/03/29 03:41:08;;;;;;;;;;;;;;;19.78;46.66;99444.38;2065648;28;2124;-62
2024/03/29 03:42:09;;;;;;;;;;;;;;;19.79;46.59;99437.22;2058673;28;2163;-62
2024/03/29 03:43:10;;;;;;;;;;;;;;;19.80;46.63;99443.69;2059817;28;2181;-62
2024/03/29 03:44:10;;;;;;;;;;;;;;;19.80;46.53;99444.41;2061304;28;2384;-62
2024/03/29 03:45:10;;;;;;;;;;;;;;;19.81;46.52;99445.91;2060710;28;1776;-62
2024/03/29 03:46:11;;;;;;;;;;;;;;;19.81;46.47;99437.28;2058314;28;2162;-62
2024/03/29 03:47:11;;;;;;;;;;;;;;;19.83;46.46;99442.31;2060860;28;2256;-62
2024/03/29 03:48:12;;;;;;;;;;;;;;;19.83;46.57;99431.56;2070066;28;2226;-62
2024/03/29 03:49:12;;;;;;;;;;;;;;;19.84;46.49;99432.31;2069448;28;1709;-62
2024/03/29 03:50:13;;;;;;;;;;;;;;;19.84;46.70;99426.56;2061121;28;1992;-62
2024/03/29 03:51:13;;;;;;;;;;;;;;;19.85;46.54;99425.16;2059030;28;2119;-62
2024/03/29 03:52:13;;;;;;;;;;;;;;;19.85;46.52;99416.53;2057759;28;2110;-62
2024/03/29 03:53:14;;;;;;;;;;;;;;;19.85;46.40;99407.91;2060719;28;2354;-62
2024/03/29 03:54:15;;;;;;;;;;;;;;;19.86;46.56;99400.78;2069728;28;1692;-62
2024/03/29 03:55:15;;;;;;;;;;;;;;;19.86;46.61;99397.91;2068470;28;2086;-63
2024/03/29 03:56:15;;;;;;;;;;;;;;;19.86;46.56;99395.03;2061948;28;1756;-62
2024/03/29 03:57:16;;;;;;;;;;;;;;;19.87;46.68;99396.47;2061396;28;1961;-62
2024/03/29 03:58:16;;;;;;;;;;;;;;;19.88;46.78;99400.81;2060084;28;2190;-62
2024/03/29 03:59:17;;;;;;;;;;;;;;;19.87;46.76;99400.06;2061538;28;2103;-62
2024/03/29 04:00:18;;;;;;;;;;;;;;;19.88;46.71;99409.41;2061089;28;6463;-62
2024/03/29 04:01:19;;;;;;;;;;;;;;;19.87;46.88;99407.97;2066235;28;2165;-62
2024/03/29 04:02:19;;;;;;;;;;;;;;;19.87;46.99;99408.69;2069028;28;2172;-64
2024/03/29 04:03:19;;;;;;;;;;;;;;;19.88;46.91;99415.91;2068566;28;2093;-63
2024/03/29 04:04:20;;;;;;;;;;;;;;;19.88;46.87;99403.66;2061124;28;1725;-79
2024/03/29 04:05:21;;;;;;;;;;;;;;;19.88;47.16;99404.44;2052080;28;1718;-66
2024/03/29 04:06:21;;;;;;;;;;;;;;;19.88;46.99;99403.66;2054332;28;1699;-66
2024/03/29 04:07:22;;;;;;;;;;;;;;;19.87;46.91;99416.59;2054678;28;1764;-66
2024/03/29 04:08:22;;;;;;;;;;;;;;;19.88;47.04;99409.41;2061320;28;1698;-66
2024/03/29 04:09:22;;;;;;;;;;;;;;;19.88;46.97;99418.03;2068130;28;2090;-66
2024/03/29 04:10:23;;;;;;;;;;;;;;;19.86;47.18;99418.00;2067895;28;2189;-66
2024/03/29 04:11:23;;;;;;;;;;;;;;;19.87;46.98;99417.31;2061131;28;2205;-66
2024/03/29 04:12:24;;;;;;;;;;;;;;;19.87;47.04;99420.19;2068241;28;1812;-66
2024/03/29 04:13:26;;;;;;;;;;;;;;;19.87;47.14;99411.56;2065790;28;2189;-66
2024/03/29 04:14:26;;;;;;;;;;;;;;;19.87;47.18;99414.44;2060626;28;2207;-66
2024/03/29 04:15:26;;;;;;;;;;;;;;;19.87;47.22;99407.97;2060328;28;2137;-66
2024/03/29 04:16:27;;;;;;;;;;;;;;;19.86;47.03;99406.53;2060847;28;2072;-66
2024/03/29 04:17:27;;;;;;;;;;;;;;;19.87;47.09;99402.94;2060948;28;1627;-66
2024/03/29 04:18:28;;;;;;;;;;;;;;;19.87;47.08;99411.56;2061527;28;1643;-66
2024/03/29 04:19:28;;;;;;;;;;;;;;;19.88;47.21;99406.53;2061994;28;1600;-66
2024/03/29 04:20:29;;;;;;;;;;;;;;;19.87;47.18;99420.19;2060081;28;1906;-66
2024/03/29 04:21:29;;;;;;;;;;;;;;;19.88;47.19;99420.91;2066851;28;2176;-67
2024/03/29 04:22:30;;;;;;;;;;;;;;;19.89;47.43;99419.50;2065428;28;2185;-66
2024/03/29 04:23:30;;;;;;;;;;;;;;;19.90;47.69;99423.84;2067424;28;2098;-66
2024/03/29 04:24:31;;;;;;;;;;;;;;;19.90;47.31;99415.22;2059095;28;2165;-66
2024/03/29 04:25:31;;;;;;;;;;;;;;;19.89;47.41;99410.91;2069107;28;2102;-65
2024/03/29 04:26:32;;;;;;;;;;;;;;;19.85;47.69;99405.03;2069515;28;1642;-65
2024/03/29 04:27:32;;;;;;;;;;;;;;;19.91;47.65;99408.06;2059812;28;2039;-65
2024/03/29 04:28:32;;;;;;;;;;;;;;;19.92;47.40;99406.66;2059446;28;2362;-65
2024/03/29 04:29:33;;;;;;;;;;;;;;;19.92;47.52;99403.06;2061089;28;2418;-65
2024/03/29 04:30:33;;;;;;;;;;;;;;;19.92;47.55;99398.03;2060070;28;6033;-65
2024/03/29 04:31:34;;;;;;;;;;;;;;;19.92;47.85;99403.78;2060881;28;1652;-65
2024/03/29 04:32:34;;;;;;;;;;;;;;;19.92;47.76;99400.91;2069521;28;1552;-65
2024/03/29 04:33:34;;;;;;;;;;;;;;;19.93;47.72;99401.63;2069046;28;1767;-65
2024/03/29 04:34:35;;;;;;;;;;;;;;;19.94;47.92;99395.22;2058647;28;2134;-65
2024/03/29 04:35:35;;;;;;;;;;;;;;;19.93;48.01;99399.50;2060314;28;2103;-65
2024/03/29 04:36:35;;;;;;;;;;;;;;;19.93;47.99;99396.63;2062211;28;1643;-65
2024/03/29 04:37:36;;;;;;;;;;;;;;;19.93;47.66;99405.25;2060242;28;1655;-65
2024/03/29 04:38:36;;;;;;;;;;;;;;;19.93;47.63;99399.50;2059445;28;2339;-65
2024/03/29 04:39:37;;;;;;;;;;;;;;;19.93;47.77;99405.25;2066801;28;1727;-65
2024/03/29 04:40:37;;;;;;;;;;;;;;;19.93;47.81;99408.13;2069515;28;1951;-65
2024/03/29 04:41:37;;;;;;;;;;;;;;;19.94;47.84;99400.97;2059220;28;1679;-65
2024/03/29 04:42:38;;;;;;;;;;;;;;;19.93;47.61;99395.88;2060099;28;1796;-65
2024/03/29 04:43:39;;;;;;;;;;;;;;;19.93;47.76;99393.75;2057450;28;2158;-65
2024/03/29 04:44:40;;;;;;;;;;;;;;;19.94;47.76;99394.50;2065879;28;2137;-65
2024/03/29 04:45:40;;;;;;;;;;;;;;;19.93;47.72;99402.38;2058693;28;2115;-65
2024/03/29 04:46:41;;;;;;;;;;;;;;;19.94;47.84;99406.72;2060423;28;2314;-65
2024/03/29 04:47:41;;;;;;;;;;;;;;;19.93;47.79;99413.88;2061074;28;1571;-65
2024/03/29 04:48:42;;;;;;;;;;;;;;;19.94;47.63;99403.09;2069077;28;2097;-65
2024/03/29 04:49:42;;;;;;;;;;;;;;;19.94;47.60;99400.97;2067373;28;1604;-65
2024/03/29 04:50:43;;;;;;;;;;;;;;;19.94;47.60;99392.34;2060710;28;1710;-65
2024/03/29 04:51:43;;;;;;;;;;;;;;;19.95;47.63;99395.94;2061162;28;1712;-65
2024/03/29 04:52:43;;;;;;;;;;;;;;;19.96;47.62;99403.88;2060338;28;2066;-65
2024/03/29 04:53:44;;;;;;;;;;;;;;;19.96;47.62;99398.13;2060141;28;1621;-65
2024/03/29 04:54:44;;;;;;;;;;;;;;;19.97;47.68;99407.47;2057126;28;2193;-65
2024/03/29 04:55:47;;;;;;;;;;;;;;;19.97;47.81;99408.22;2061093;28;1892;-65
2024/03/29 04:56:48;;;;;;;;;;;;;;;19.97;47.83;99407.47;2060806;28;1706;-65
2024/03/29 04:57:48;;;;;;;;;;;;;;;19.97;48.01;99399.59;2059658;28;1711;-65
2024/03/29 04:58:48;;;;;;;;;;;;;;;19.98;47.86;99401.06;2059121;28;2106;-65
2024/03/29 04:59:49;;;;;;;;;;;;;;;19.98;47.76;99400.34;2064898;28;2154;-65
2024/03/29 05:00:50;;;;;;;;;;;;;;;19.98;47.79;99412.56;2063662;28;6403;-65
2024/03/29 05:01:52;;;;;;;;;;;;;;;19.98;47.86;99409.69;2066972;28;2129;-65
2024/03/29 05:02:53;;;;;;;;;;;;;;;19.99;47.99;99404.66;2058773;28;2516;-65
2024/03/29 05:03:53;;;;;;;;;;;;;;;19.98;48.00;99415.44;2067139;28;2189;-65
2024/03/29 05:04:55;;;;;;;;;;;;;;;19.98;48.04;99420.44;2065873;28;2140;-65
2024/03/29 05:05:56;;;;;;;;;;;;;;;19.99;48.13;99424.78;2058276;28;2245;-65
2024/03/29 05:06:57;;;;;;;;;;;;;;;19.98;48.34;99426.94;2059972;28;2166;-65
2024/03/29 05:07:58;;;;;;;;;;;;;;;19.97;48.36;99419.69;2067162;28;2121;-65
2024/03/29 05:08:58;;;;;;;;;;;;;;;19.97;48.50;99416.81;2065387;28;2138;-65
2024/03/29 05:10:00;;;;;;;;;;;;;;;19.96;48.18;99412.50;2066238;28;2263;-65
2024/03/29 05:11:00;;;;;;;;;;;;;;;19.98;48.06;99406.09;2058877;28;2139;-65
2024/03/29 05:12:00;;;;;;;;;;;;;;;19.97;48.06;99416.81;2060499;28;2102;-65
2024/03/29 05:13:01;;;;;;;;;;;;;;;19.98;47.88;99417.59;2061063;28;1715;-65
2024/03/29 05:14:03;;;;;;;;;;;;;;;19.98;48.02;99418.31;2057524;28;2272;-65
2024/03/29 05:15:04;;;;;;;;;;;;;;;19.98;48.00;99424.06;2065529;28;2624;-66
2024/03/29 05:16:04;;;;;;;;;;;;;;;19.99;48.09;99421.91;2058812;28;2590;-65
2024/03/29 05:17:05;;;;;;;;;;;;;;;19.98;48.12;99421.19;2058138;28;2570;-65
2024/03/29 05:18:05;;;;;;;;;;;;;;;19.99;48.04;99419.03;2059904;28;2167;-65
2024/03/29 05:19:05;;;;;;;;;;;;;;;19.99;48.05;99419.03;2058538;28;2126;-65
2024/03/29 05:20:06;;;;;;;;;;;;;;;19.99;48.10;99424.78;2059635;28;2599;-65
2024/03/29 05:21:06;;;;;;;;;;;;;;;19.99;48.54;99416.88;2060347;28;2490;-65
2024/03/29 05:22:07;;;;;;;;;;;;;;;19.99;48.51;99416.88;2060191;28;1897;-65
2024/03/29 05:23:07;;;;;;;;;;;;;;;19.99;48.47;99414.00;2059609;28;2170;-65
2024/03/29 05:24:08;;;;;;;;;;;;;;;20.00;48.21;99429.84;2061597;28;2190;-65